sensor_id;sensor_type;location;lat;lon;timestamp;P1;durP1;ratioP1;P2;durP2;ratioP2
4704;SDS011;2366;51.332;6.610;2024-01-06T00:01:24;35.13;;;23.53;;
4704;SDS011;2366;51.332;6.610;2024-01-06T00:03:50;31.23;;;21.07;;
4704;SDS011;2366;51.332;6.610;2024-01-06T00:06:15;29.33;;;19.93;;
4704;SDS011;2366;51.332;6.610;2024-01-06T00:08:40;27.43;;;19.40;;
4704;SDS011;2366;51.332;6.610;2024-01-06T00:11:06;28.60;;;21.53;;
4704;SDS011;2366;51.332;6.610;2024-01-06T00:13:31;26.33;;;20.47;;
4704;SDS011;2366;51.332;6.610;2024-01-06T00:15:57;32.10;;;22.07;;
4704;SDS011;2366;51.332;6.610;2024-01-06T00:18:22;27.73;;;20.53;;
4704;SDS011;2366;51.332;6.610;2024-01-06T00:20:47;31.33;;;21.90;;
4704;SDS011;2366;51.332;6.610;2024-01-06T00:23:13;29.23;;;20.00;;
4704;SDS011;2366;51.332;6.610;2024-01-06T00:25:38;34.10;;;22.03;;
4704;SDS011;2366;51.332;6.610;2024-01-06T00:28:04;32.50;;;22.00;;
4704;SDS011;2366;51.332;6.610;2024-01-06T00:30:29;31.83;;;21.20;;
4704;SDS011;2366;51.332;6.610;2024-01-06T00:32:55;26.10;;;20.20;;
4704;SDS011;2366;51.332;6.610;2024-01-06T00:35:20;31.37;;;21.97;;
4704;SDS011;2366;51.332;6.610;2024-01-06T00:37:45;35.73;;;23.30;;
4704;SDS011;2366;51.332;6.610;2024-01-06T00:40:11;32.47;;;22.57;;
4704;SDS011;2366;51.332;6.610;2024-01-06T00:42:36;33.00;;;22.43;;
4704;SDS011;2366;51.332;6.610;2024-01-06T00:45:02;38.40;;;20.87;;
4704;SDS011;2366;51.332;6.610;2024-01-06T00:47:29;33.70;;;23.83;;
4704;SDS011;2366;51.332;6.610;2024-01-06T00:49:55;33.88;;;20.63;;
4704;SDS011;2366;51.332;6.610;2024-01-06T00:52:20;30.07;;;22.97;;
4704;SDS011;2366;51.332;6.610;2024-01-06T00:54:46;36.53;;;23.80;;
4704;SDS011;2366;51.332;6.610;2024-01-06T00:57:12;35.80;;;24.77;;
4704;SDS011;2366;51.332;6.610;2024-01-06T00:59:37;36.83;;;23.13;;
4704;SDS011;2366;51.332;6.610;2024-01-06T01:02:03;35.50;;;24.50;;
4704;SDS011;2366;51.332;6.610;2024-01-06T01:04:28;31.87;;;21.87;;
4704;SDS011;2366;51.332;6.610;2024-01-06T01:06:54;38.97;;;25.30;;
4704;SDS011;2366;51.332;6.610;2024-01-06T01:09:19;38.63;;;23.70;;
4704;SDS011;2366;51.332;6.610;2024-01-06T01:11:44;35.43;;;23.70;;
4704;SDS011;2366;51.332;6.610;2024-01-06T01:14:10;37.20;;;24.77;;
4704;SDS011;2366;51.332;6.610;2024-01-06T01:16:35;38.37;;;23.40;;
4704;SDS011;2366;51.332;6.610;2024-01-06T01:19:00;31.57;;;22.80;;
4704;SDS011;2366;51.332;6.610;2024-01-06T01:21:27;32.67;;;23.70;;
4704;SDS011;2366;51.332;6.610;2024-01-06T01:23:53;37.80;;;24.50;;
4704;SDS011;2366;51.332;6.610;2024-01-06T01:26:18;32.27;;;22.33;;
4704;SDS011;2366;51.332;6.610;2024-01-06T01:28:43;36.93;;;24.00;;
4704;SDS011;2366;51.332;6.610;2024-01-06T01:31:09;40.33;;;24.70;;
4704;SDS011;2366;51.332;6.610;2024-01-06T01:33:34;36.30;;;24.87;;
4704;SDS011;2366;51.332;6.610;2024-01-06T01:35:59;36.30;;;21.50;;
4704;SDS011;2366;51.332;6.610;2024-01-06T01:38:25;35.63;;;25.17;;
4704;SDS011;2366;51.332;6.610;2024-01-06T01:40:50;36.93;;;23.93;;
4704;SDS011;2366;51.332;6.610;2024-01-06T01:43:19;33.23;;;23.27;;
4704;SDS011;2366;51.332;6.610;2024-01-06T01:45:45;37.13;;;25.75;;
4704;SDS011;2366;51.332;6.610;2024-01-06T01:48:18;35.08;;;24.65;;
4704;SDS011;2366;51.332;6.610;2024-01-06T01:50:44;44.67;;;27.48;;
4704;SDS011;2366;51.332;6.610;2024-01-06T01:53:10;36.63;;;25.63;;
4704;SDS011;2366;51.332;6.610;2024-01-06T01:55:37;47.13;;;26.83;;
4704;SDS011;2366;51.332;6.610;2024-01-06T01:58:03;40.17;;;26.23;;
4704;SDS011;2366;51.332;6.610;2024-01-06T02:00:28;35.67;;;23.60;;
4704;SDS011;2366;51.332;6.610;2024-01-06T02:02:53;35.80;;;24.43;;
4704;SDS011;2366;51.332;6.610;2024-01-06T02:05:19;34.43;;;23.10;;
4704;SDS011;2366;51.332;6.610;2024-01-06T02:07:44;41.60;;;23.80;;
4704;SDS011;2366;51.332;6.610;2024-01-06T02:10:10;43.30;;;24.97;;
4704;SDS011;2366;51.332;6.610;2024-01-06T02:12:35;45.13;;;25.83;;
4704;SDS011;2366;51.332;6.610;2024-01-06T02:15:01;48.47;;;25.80;;
4704;SDS011;2366;51.332;6.610;2024-01-06T02:17:26;39.30;;;24.03;;
4704;SDS011;2366;51.332;6.610;2024-01-06T02:19:51;43.70;;;25.20;;
4704;SDS011;2366;51.332;6.610;2024-01-06T02:22:17;44.17;;;25.00;;
4704;SDS011;2366;51.332;6.610;2024-01-06T02:24:42;47.80;;;27.10;;
4704;SDS011;2366;51.332;6.610;2024-01-06T02:27:08;41.37;;;25.03;;
4704;SDS011;2366;51.332;6.610;2024-01-06T02:29:33;51.53;;;25.07;;
4704;SDS011;2366;51.332;6.610;2024-01-06T02:31:58;45.50;;;25.07;;
4704;SDS011;2366;51.332;6.610;2024-01-06T02:34:24;47.47;;;27.63;;
4704;SDS011;2366;51.332;6.610;2024-01-06T02:36:49;48.53;;;27.93;;
4704;SDS011;2366;51.332;6.610;2024-01-06T02:39:14;38.90;;;25.70;;
4704;SDS011;2366;51.332;6.610;2024-01-06T02:41:40;42.30;;;24.83;;
4704;SDS011;2366;51.332;6.610;2024-01-06T02:44:05;46.33;;;27.27;;
4704;SDS011;2366;51.332;6.610;2024-01-06T02:46:31;45.43;;;27.00;;
4704;SDS011;2366;51.332;6.610;2024-01-06T02:48:56;44.63;;;27.17;;
4704;SDS011;2366;51.332;6.610;2024-01-06T02:51:21;43.23;;;25.37;;
4704;SDS011;2366;51.332;6.610;2024-01-06T02:53:47;45.80;;;27.40;;
4704;SDS011;2366;51.332;6.610;2024-01-06T02:56:12;49.63;;;25.00;;
4704;SDS011;2366;51.332;6.610;2024-01-06T02:58:38;48.63;;;26.83;;
4704;SDS011;2366;51.332;6.610;2024-01-06T03:01:04;45.25;;;26.25;;
4704;SDS011;2366;51.332;6.610;2024-01-06T03:03:29;44.73;;;25.20;;
4704;SDS011;2366;51.332;6.610;2024-01-06T03:05:55;48.70;;;26.40;;
4704;SDS011;2366;51.332;6.610;2024-01-06T03:08:20;54.00;;;27.33;;
4704;SDS011;2366;51.332;6.610;2024-01-06T03:10:46;45.70;;;27.40;;
4704;SDS011;2366;51.332;6.610;2024-01-06T03:13:11;43.87;;;26.77;;
4704;SDS011;2366;51.332;6.610;2024-01-06T03:15:36;40.50;;;22.43;;
4704;SDS011;2366;51.332;6.610;2024-01-06T03:18:02;26.90;;;16.30;;
4704;SDS011;2366;51.332;6.610;2024-01-06T03:20:27;24.70;;;16.13;;
4704;SDS011;2366;51.332;6.610;2024-01-06T03:22:53;22.53;;;15.07;;
4704;SDS011;2366;51.332;6.610;2024-01-06T03:25:18;22.37;;;14.53;;
4704;SDS011;2366;51.332;6.610;2024-01-06T03:27:43;28.93;;;16.07;;
4704;SDS011;2366;51.332;6.610;2024-01-06T03:30:09;28.10;;;15.37;;
4704;SDS011;2366;51.332;6.610;2024-01-06T03:32:35;27.65;;;16.38;;
4704;SDS011;2366;51.332;6.610;2024-01-06T03:35:00;29.30;;;15.30;;
4704;SDS011;2366;51.332;6.610;2024-01-06T03:37:25;24.00;;;15.97;;
4704;SDS011;2366;51.332;6.610;2024-01-06T03:39:51;23.40;;;14.93;;
4704;SDS011;2366;51.332;6.610;2024-01-06T03:42:16;20.57;;;13.13;;
4704;SDS011;2366;51.332;6.610;2024-01-06T03:44:42;23.67;;;15.33;;
4704;SDS011;2366;51.332;6.610;2024-01-06T03:47:07;24.97;;;15.90;;
4704;SDS011;2366;51.332;6.610;2024-01-06T03:49:32;25.17;;;13.63;;
4704;SDS011;2366;51.332;6.610;2024-01-06T03:51:58;25.73;;;13.70;;
4704;SDS011;2366;51.332;6.610;2024-01-06T03:54:23;22.00;;;14.00;;
4704;SDS011;2366;51.332;6.610;2024-01-06T03:56:49;20.07;;;12.27;;
4704;SDS011;2366;51.332;6.610;2024-01-06T03:59:15;19.67;;;11.57;;
4704;SDS011;2366;51.332;6.610;2024-01-06T04:01:40;18.23;;;11.73;;
4704;SDS011;2366;51.332;6.610;2024-01-06T04:04:05;22.60;;;11.93;;
4704;SDS011;2366;51.332;6.610;2024-01-06T04:06:31;19.80;;;11.95;;
4704;SDS011;2366;51.332;6.610;2024-01-06T04:08:57;21.53;;;13.53;;
4704;SDS011;2366;51.332;6.610;2024-01-06T04:11:23;19.23;;;12.02;;
4704;SDS011;2366;51.332;6.610;2024-01-06T04:13:48;18.77;;;12.57;;
4704;SDS011;2366;51.332;6.610;2024-01-06T04:16:14;16.53;;;11.50;;
4704;SDS011;2366;51.332;6.610;2024-01-06T04:18:39;18.83;;;12.90;;
4704;SDS011;2366;51.332;6.610;2024-01-06T04:21:05;23.47;;;12.37;;
4704;SDS011;2366;51.332;6.610;2024-01-06T04:23:30;21.47;;;12.50;;
4704;SDS011;2366;51.332;6.610;2024-01-06T04:25:56;21.97;;;13.40;;
4704;SDS011;2366;51.332;6.610;2024-01-06T04:28:22;18.97;;;11.23;;
4704;SDS011;2366;51.332;6.610;2024-01-06T04:30:47;18.50;;;12.23;;
4704;SDS011;2366;51.332;6.610;2024-01-06T04:33:12;23.23;;;14.27;;
4704;SDS011;2366;51.332;6.610;2024-01-06T04:35:38;22.40;;;13.10;;
4704;SDS011;2366;51.332;6.610;2024-01-06T04:38:03;25.13;;;13.97;;
4704;SDS011;2366;51.332;6.610;2024-01-06T04:40:29;17.77;;;12.60;;
4704;SDS011;2366;51.332;6.610;2024-01-06T04:42:54;23.07;;;12.93;;
4704;SDS011;2366;51.332;6.610;2024-01-06T04:45:20;23.90;;;13.10;;
4704;SDS011;2366;51.332;6.610;2024-01-06T04:47:45;22.60;;;12.63;;
4704;SDS011;2366;51.332;6.610;2024-01-06T04:50:11;20.07;;;12.87;;
4704;SDS011;2366;51.332;6.610;2024-01-06T04:52:36;23.43;;;13.43;;
4704;SDS011;2366;51.332;6.610;2024-01-06T04:55:02;20.07;;;12.33;;
4704;SDS011;2366;51.332;6.610;2024-01-06T04:57:27;22.57;;;12.40;;
4704;SDS011;2366;51.332;6.610;2024-01-06T04:59:53;24.50;;;15.77;;
4704;SDS011;2366;51.332;6.610;2024-01-06T05:02:18;27.93;;;14.27;;
4704;SDS011;2366;51.332;6.610;2024-01-06T05:04:43;21.20;;;13.30;;
4704;SDS011;2366;51.332;6.610;2024-01-06T05:07:09;24.00;;;13.57;;
4704;SDS011;2366;51.332;6.610;2024-01-06T05:09:34;22.87;;;14.40;;
4704;SDS011;2366;51.332;6.610;2024-01-06T05:11:59;23.20;;;14.13;;
4704;SDS011;2366;51.332;6.610;2024-01-06T05:14:25;26.90;;;15.63;;
4704;SDS011;2366;51.332;6.610;2024-01-06T05:16:50;24.93;;;15.87;;
4704;SDS011;2366;51.332;6.610;2024-01-06T05:19:16;23.83;;;15.20;;
4704;SDS011;2366;51.332;6.610;2024-01-06T05:21:45;20.80;;;13.57;;
4704;SDS011;2366;51.332;6.610;2024-01-06T05:24:12;27.75;;;14.00;;
4704;SDS011;2366;51.332;6.610;2024-01-06T05:26:37;23.83;;;13.63;;
4704;SDS011;2366;51.332;6.610;2024-01-06T05:29:02;25.53;;;14.50;;
4704;SDS011;2366;51.332;6.610;2024-01-06T05:31:28;26.77;;;15.93;;
4704;SDS011;2366;51.332;6.610;2024-01-06T05:33:53;23.73;;;13.37;;
4704;SDS011;2366;51.332;6.610;2024-01-06T05:36:19;25.40;;;13.80;;
4704;SDS011;2366;51.332;6.610;2024-01-06T05:38:45;21.42;;;12.85;;
4704;SDS011;2366;51.332;6.610;2024-01-06T05:41:10;27.70;;;15.67;;
4704;SDS011;2366;51.332;6.610;2024-01-06T05:43:36;24.03;;;13.10;;
4704;SDS011;2366;51.332;6.610;2024-01-06T05:46:01;24.57;;;14.80;;
4704;SDS011;2366;51.332;6.610;2024-01-06T05:48:26;24.53;;;15.23;;
4704;SDS011;2366;51.332;6.610;2024-01-06T05:50:52;26.07;;;14.00;;
4704;SDS011;2366;51.332;6.610;2024-01-06T05:53:17;23.33;;;14.03;;
4704;SDS011;2366;51.332;6.610;2024-01-06T05:55:43;24.57;;;12.87;;
4704;SDS011;2366;51.332;6.610;2024-01-06T05:58:09;21.17;;;14.33;;
4704;SDS011;2366;51.332;6.610;2024-01-06T06:00:34;25.27;;;16.13;;
4704;SDS011;2366;51.332;6.610;2024-01-06T06:03:00;20.40;;;13.47;;
4704;SDS011;2366;51.332;6.610;2024-01-06T06:05:25;24.63;;;14.73;;
4704;SDS011;2366;51.332;6.610;2024-01-06T06:07:51;21.85;;;12.35;;
4704;SDS011;2366;51.332;6.610;2024-01-06T06:10:17;26.03;;;13.80;;
4704;SDS011;2366;51.332;6.610;2024-01-06T06:12:44;20.65;;;12.57;;
4704;SDS011;2366;51.332;6.610;2024-01-06T06:15:09;22.10;;;13.38;;
4704;SDS011;2366;51.332;6.610;2024-01-06T06:17:35;24.80;;;13.50;;
4704;SDS011;2366;51.332;6.610;2024-01-06T06:20:01;19.23;;;12.50;;
4704;SDS011;2366;51.332;6.610;2024-01-06T06:22:27;24.33;;;12.63;;
4704;SDS011;2366;51.332;6.610;2024-01-06T06:24:56;20.95;;;11.60;;
4704;SDS011;2366;51.332;6.610;2024-01-06T06:27:22;24.80;;;14.25;;
4704;SDS011;2366;51.332;6.610;2024-01-06T06:29:48;19.15;;;12.88;;
4704;SDS011;2366;51.332;6.610;2024-01-06T06:32:13;22.30;;;13.77;;
4704;SDS011;2366;51.332;6.610;2024-01-06T06:34:38;25.73;;;13.87;;
4704;SDS011;2366;51.332;6.610;2024-01-06T06:37:04;22.33;;;13.07;;
4704;SDS011;2366;51.332;6.610;2024-01-06T06:39:30;24.73;;;13.60;;
4704;SDS011;2366;51.332;6.610;2024-01-06T06:41:57;23.88;;;13.50;;
4704;SDS011;2366;51.332;6.610;2024-01-06T06:44:22;19.53;;;12.20;;
4704;SDS011;2366;51.332;6.610;2024-01-06T06:46:48;23.13;;;13.75;;
4704;SDS011;2366;51.332;6.610;2024-01-06T06:49:14;24.50;;;13.13;;
4704;SDS011;2366;51.332;6.610;2024-01-06T06:51:39;22.70;;;13.53;;
4704;SDS011;2366;51.332;6.610;2024-01-06T06:54:11;22.35;;;13.52;;
4704;SDS011;2366;51.332;6.610;2024-01-06T06:56:37;22.02;;;13.02;;
4704;SDS011;2366;51.332;6.610;2024-01-06T06:59:02;23.97;;;15.00;;
4704;SDS011;2366;51.332;6.610;2024-01-06T07:01:28;23.20;;;13.73;;
4704;SDS011;2366;51.332;6.610;2024-01-06T07:03:53;21.80;;;12.57;;
4704;SDS011;2366;51.332;6.610;2024-01-06T07:06:19;22.70;;;12.97;;
4704;SDS011;2366;51.332;6.610;2024-01-06T07:08:44;24.07;;;14.33;;
4704;SDS011;2366;51.332;6.610;2024-01-06T07:11:10;23.13;;;14.00;;
4704;SDS011;2366;51.332;6.610;2024-01-06T07:13:36;29.63;;;14.80;;
4704;SDS011;2366;51.332;6.610;2024-01-06T07:16:02;26.87;;;14.73;;
4704;SDS011;2366;51.332;6.610;2024-01-06T07:18:28;26.70;;;16.20;;
4704;SDS011;2366;51.332;6.610;2024-01-06T07:20:53;30.57;;;15.77;;
4704;SDS011;2366;51.332;6.610;2024-01-06T07:23:18;27.97;;;15.50;;
4704;SDS011;2366;51.332;6.610;2024-01-06T07:25:44;28.00;;;15.23;;
4704;SDS011;2366;51.332;6.610;2024-01-06T07:28:09;29.13;;;16.20;;
4704;SDS011;2366;51.332;6.610;2024-01-06T07:30:35;24.13;;;15.97;;
4704;SDS011;2366;51.332;6.610;2024-01-06T07:33:00;26.57;;;14.23;;
4704;SDS011;2366;51.332;6.610;2024-01-06T07:35:25;30.83;;;16.30;;
4704;SDS011;2366;51.332;6.610;2024-01-06T07:37:51;25.67;;;14.30;;
4704;SDS011;2366;51.332;6.610;2024-01-06T07:40:16;26.10;;;13.77;;
4704;SDS011;2366;51.332;6.610;2024-01-06T07:42:42;28.90;;;15.57;;
4704;SDS011;2366;51.332;6.610;2024-01-06T07:45:09;29.75;;;15.85;;
4704;SDS011;2366;51.332;6.610;2024-01-06T07:47:34;30.48;;;15.77;;
4704;SDS011;2366;51.332;6.610;2024-01-06T07:50:00;31.63;;;15.60;;
4704;SDS011;2366;51.332;6.610;2024-01-06T07:52:25;33.80;;;18.23;;
4704;SDS011;2366;51.332;6.610;2024-01-06T07:54:51;35.33;;;17.03;;
4704;SDS011;2366;51.332;6.610;2024-01-06T07:57:16;33.40;;;18.03;;
4704;SDS011;2366;51.332;6.610;2024-01-06T07:59:41;27.83;;;14.40;;
4704;SDS011;2366;51.332;6.610;2024-01-06T08:02:07;33.17;;;15.87;;
4704;SDS011;2366;51.332;6.610;2024-01-06T08:04:33;27.30;;;15.07;;
4704;SDS011;2366;51.332;6.610;2024-01-06T08:06:59;29.37;;;15.93;;
4704;SDS011;2366;51.332;6.610;2024-01-06T08:09:25;30.23;;;15.30;;
4704;SDS011;2366;51.332;6.610;2024-01-06T08:11:50;30.47;;;15.23;;
4704;SDS011;2366;51.332;6.610;2024-01-06T08:14:15;29.40;;;14.87;;
4704;SDS011;2366;51.332;6.610;2024-01-06T08:16:42;31.35;;;15.25;;
4704;SDS011;2366;51.332;6.610;2024-01-06T08:19:08;29.80;;;15.00;;
4704;SDS011;2366;51.332;6.610;2024-01-06T08:21:33;27.53;;;13.40;;
4704;SDS011;2366;51.332;6.610;2024-01-06T08:23:59;27.70;;;14.07;;
4704;SDS011;2366;51.332;6.610;2024-01-06T08:26:25;22.00;;;12.10;;
4704;SDS011;2366;51.332;6.610;2024-01-06T08:28:51;26.63;;;15.50;;
4704;SDS011;2366;51.332;6.610;2024-01-06T08:31:16;24.37;;;14.37;;
4704;SDS011;2366;51.332;6.610;2024-01-06T08:33:41;26.30;;;14.73;;
4704;SDS011;2366;51.332;6.610;2024-01-06T08:36:07;29.33;;;15.73;;
4704;SDS011;2366;51.332;6.610;2024-01-06T08:38:33;31.07;;;15.20;;
4704;SDS011;2366;51.332;6.610;2024-01-06T08:40:58;30.07;;;15.37;;
4704;SDS011;2366;51.332;6.610;2024-01-06T08:43:23;31.40;;;15.20;;
4704;SDS011;2366;51.332;6.610;2024-01-06T08:45:49;29.73;;;17.33;;
4704;SDS011;2366;51.332;6.610;2024-01-06T08:48:15;30.30;;;14.57;;
4704;SDS011;2366;51.332;6.610;2024-01-06T08:50:43;36.88;;;19.60;;
4704;SDS011;2366;51.332;6.610;2024-01-06T08:53:10;46.45;;;20.52;;
4704;SDS011;2366;51.332;6.610;2024-01-06T08:55:36;41.83;;;19.90;;
4704;SDS011;2366;51.332;6.610;2024-01-06T08:58:01;44.63;;;20.87;;
4704;SDS011;2366;51.332;6.610;2024-01-06T09:00:26;48.10;;;21.80;;
4704;SDS011;2366;51.332;6.610;2024-01-06T09:02:52;41.40;;;19.23;;
4704;SDS011;2366;51.332;6.610;2024-01-06T09:05:17;50.17;;;21.33;;
4704;SDS011;2366;51.332;6.610;2024-01-06T09:07:43;40.20;;;20.53;;
4704;SDS011;2366;51.332;6.610;2024-01-06T09:10:08;46.43;;;23.03;;
4704;SDS011;2366;51.332;6.610;2024-01-06T09:12:35;51.80;;;20.95;;
4704;SDS011;2366;51.332;6.610;2024-01-06T09:15:00;50.27;;;22.60;;
4704;SDS011;2366;51.332;6.610;2024-01-06T09:17:25;58.70;;;24.33;;
4704;SDS011;2366;51.332;6.610;2024-01-06T09:19:51;56.40;;;24.13;;
4704;SDS011;2366;51.332;6.610;2024-01-06T09:22:18;64.03;;;26.40;;
4704;SDS011;2366;51.332;6.610;2024-01-06T09:24:44;55.27;;;23.03;;
4704;SDS011;2366;51.332;6.610;2024-01-06T09:27:09;68.77;;;27.90;;
4704;SDS011;2366;51.332;6.610;2024-01-06T09:29:35;81.77;;;28.40;;
4704;SDS011;2366;51.332;6.610;2024-01-06T09:32:00;71.97;;;25.67;;
4704;SDS011;2366;51.332;6.610;2024-01-06T09:34:25;71.03;;;26.10;;
4704;SDS011;2366;51.332;6.610;2024-01-06T09:36:51;70.63;;;24.70;;
4704;SDS011;2366;51.332;6.610;2024-01-06T09:39:16;64.27;;;22.77;;
4704;SDS011;2366;51.332;6.610;2024-01-06T09:41:42;76.20;;;25.57;;
4704;SDS011;2366;51.332;6.610;2024-01-06T09:44:07;67.00;;;24.60;;
4704;SDS011;2366;51.332;6.610;2024-01-06T09:46:33;67.27;;;26.37;;
4704;SDS011;2366;51.332;6.610;2024-01-06T09:49:01;69.28;;;23.00;;
4704;SDS011;2366;51.332;6.610;2024-01-06T09:51:26;71.60;;;24.47;;
4704;SDS011;2366;51.332;6.610;2024-01-06T09:53:59;74.73;;;23.40;;
4704;SDS011;2366;51.332;6.610;2024-01-06T09:56:32;66.30;;;25.08;;
4704;SDS011;2366;51.332;6.610;2024-01-06T09:58:58;70.20;;;23.27;;
4704;SDS011;2366;51.332;6.610;2024-01-06T10:01:24;66.40;;;24.50;;
4704;SDS011;2366;51.332;6.610;2024-01-06T10:03:49;58.13;;;22.23;;
4704;SDS011;2366;51.332;6.610;2024-01-06T10:06:15;68.47;;;24.33;;
4704;SDS011;2366;51.332;6.610;2024-01-06T10:08:44;50.15;;;21.20;;
4704;SDS011;2366;51.332;6.610;2024-01-06T10:11:16;58.20;;;22.15;;
4704;SDS011;2366;51.332;6.610;2024-01-06T10:13:42;72.60;;;25.87;;
4704;SDS011;2366;51.332;6.610;2024-01-06T10:16:07;68.80;;;25.80;;
4704;SDS011;2366;51.332;6.610;2024-01-06T10:18:33;60.43;;;24.30;;
4704;SDS011;2366;51.332;6.610;2024-01-06T10:21:02;62.53;;;25.33;;
4704;SDS011;2366;51.332;6.610;2024-01-06T10:23:29;57.38;;;23.10;;
4704;SDS011;2366;51.332;6.610;2024-01-06T10:25:57;48.42;;;22.30;;
4704;SDS011;2366;51.332;6.610;2024-01-06T10:28:22;56.00;;;22.33;;
4704;SDS011;2366;51.332;6.610;2024-01-06T10:30:51;43.90;;;22.07;;
4704;SDS011;2366;51.332;6.610;2024-01-06T10:33:18;51.15;;;22.08;;
4704;SDS011;2366;51.332;6.610;2024-01-06T10:35:48;55.03;;;22.38;;
4704;SDS011;2366;51.332;6.610;2024-01-06T10:38:14;45.75;;;21.13;;
4704;SDS011;2366;51.332;6.610;2024-01-06T10:40:58;40.50;;;20.40;;
4704;SDS011;2366;51.332;6.610;2024-01-06T10:43:28;37.55;;;18.60;;
4704;SDS011;2366;51.332;6.610;2024-01-06T10:45:55;51.28;;;22.90;;
4704;SDS011;2366;51.332;6.610;2024-01-06T10:48:24;43.30;;;20.75;;
4704;SDS011;2366;51.332;6.610;2024-01-06T10:50:50;45.35;;;20.77;;
4704;SDS011;2366;51.332;6.610;2024-01-06T10:53:16;48.03;;;23.60;;
4704;SDS011;2366;51.332;6.610;2024-01-06T10:55:42;46.50;;;21.97;;
4704;SDS011;2366;51.332;6.610;2024-01-06T10:58:09;46.95;;;21.00;;
4704;SDS011;2366;51.332;6.610;2024-01-06T11:00:35;42.08;;;20.73;;
4704;SDS011;2366;51.332;6.610;2024-01-06T11:03:01;48.37;;;20.80;;
4704;SDS011;2366;51.332;6.610;2024-01-06T11:05:27;39.25;;;20.80;;
4704;SDS011;2366;51.332;6.610;2024-01-06T11:07:54;40.70;;;19.30;;
4704;SDS011;2366;51.332;6.610;2024-01-06T11:10:25;37.28;;;20.52;;
4704;SDS011;2366;51.332;6.610;2024-01-06T11:13:14;50.10;;;24.13;;
4704;SDS011;2366;51.332;6.610;2024-01-06T11:15:52;38.35;;;20.35;;
4704;SDS011;2366;51.332;6.610;2024-01-06T11:21:21;45.58;;;21.90;;
4704;SDS011;2366;51.332;6.610;2024-01-06T11:26:39;40.33;;;22.30;;
4704;SDS011;2366;51.332;6.610;2024-01-06T11:29:05;36.38;;;19.40;;
4704;SDS011;2366;51.332;6.610;2024-01-06T11:31:32;48.03;;;21.70;;
4704;SDS011;2366;51.332;6.610;2024-01-06T11:34:19;38.10;;;21.15;;
4704;SDS011;2366;51.332;6.610;2024-01-06T11:36:47;43.72;;;22.05;;
4704;SDS011;2366;51.332;6.610;2024-01-06T11:42:03;39.60;;;20.17;;
4704;SDS011;2366;51.332;6.610;2024-01-06T11:44:28;44.23;;;23.30;;
4704;SDS011;2366;51.332;6.610;2024-01-06T11:46:57;45.77;;;21.50;;
4704;SDS011;2366;51.332;6.610;2024-01-06T11:49:26;43.88;;;23.17;;
4704;SDS011;2366;51.332;6.610;2024-01-06T11:51:55;50.63;;;22.42;;
4704;SDS011;2366;51.332;6.610;2024-01-06T11:54:21;44.45;;;22.63;;
4704;SDS011;2366;51.332;6.610;2024-01-06T11:56:47;48.90;;;23.93;;
4704;SDS011;2366;51.332;6.610;2024-01-06T11:59:13;44.05;;;24.05;;
4704;SDS011;2366;51.332;6.610;2024-01-06T12:01:39;34.10;;;20.53;;
4704;SDS011;2366;51.332;6.610;2024-01-06T12:04:05;40.45;;;21.77;;
4704;SDS011;2366;51.332;6.610;2024-01-06T12:06:31;43.28;;;22.77;;
4704;SDS011;2366;51.332;6.610;2024-01-06T12:09:06;47.42;;;21.95;;
4704;SDS011;2366;51.332;6.610;2024-01-06T12:11:33;41.13;;;22.65;;
4704;SDS011;2366;51.332;6.610;2024-01-06T12:13:58;44.63;;;25.07;;
4704;SDS011;2366;51.332;6.610;2024-01-06T12:16:24;43.73;;;24.33;;
4704;SDS011;2366;51.332;6.610;2024-01-06T12:18:55;44.00;;;23.00;;
4704;SDS011;2366;51.332;6.610;2024-01-06T12:21:22;45.90;;;24.75;;
4704;SDS011;2366;51.332;6.610;2024-01-06T12:23:48;42.63;;;22.52;;
4704;SDS011;2366;51.332;6.610;2024-01-06T12:26:14;50.80;;;26.30;;
4704;SDS011;2366;51.332;6.610;2024-01-06T12:28:39;50.33;;;25.10;;
4704;SDS011;2366;51.332;6.610;2024-01-06T12:31:08;53.97;;;24.40;;
4704;SDS011;2366;51.332;6.610;2024-01-06T12:33:34;57.70;;;23.10;;
4704;SDS011;2366;51.332;6.610;2024-01-06T12:36:02;37.70;;;21.67;;
4704;SDS011;2366;51.332;6.610;2024-01-06T12:38:29;48.63;;;25.00;;
4704;SDS011;2366;51.332;6.610;2024-01-06T12:40:55;46.78;;;23.98;;
4704;SDS011;2366;51.332;6.610;2024-01-06T12:43:21;43.33;;;21.90;;
4704;SDS011;2366;51.332;6.610;2024-01-06T12:45:47;43.03;;;20.73;;
4704;SDS011;2366;51.332;6.610;2024-01-06T12:48:14;35.53;;;20.77;;
4704;SDS011;2366;51.332;6.610;2024-01-06T12:50:39;39.00;;;20.33;;
4704;SDS011;2366;51.332;6.610;2024-01-06T12:53:04;37.30;;;21.60;;
4704;SDS011;2366;51.332;6.610;2024-01-06T12:55:30;41.50;;;20.37;;
4704;SDS011;2366;51.332;6.610;2024-01-06T12:57:55;38.33;;;21.70;;
4704;SDS011;2366;51.332;6.610;2024-01-06T13:00:21;44.47;;;21.07;;
4704;SDS011;2366;51.332;6.610;2024-01-06T13:02:46;41.07;;;20.00;;
4704;SDS011;2366;51.332;6.610;2024-01-06T13:05:11;28.97;;;18.40;;
4704;SDS011;2366;51.332;6.610;2024-01-06T13:07:38;35.80;;;20.40;;
4704;SDS011;2366;51.332;6.610;2024-01-06T13:10:04;40.40;;;22.95;;
4704;SDS011;2366;51.332;6.610;2024-01-06T13:12:30;44.42;;;21.88;;
4704;SDS011;2366;51.332;6.610;2024-01-06T13:14:55;45.80;;;22.97;;
4704;SDS011;2366;51.332;6.610;2024-01-06T13:17:21;37.33;;;20.37;;
4704;SDS011;2366;51.332;6.610;2024-01-06T13:19:46;32.57;;;19.07;;
4704;SDS011;2366;51.332;6.610;2024-01-06T13:22:11;38.60;;;19.70;;
4704;SDS011;2366;51.332;6.610;2024-01-06T13:24:38;38.00;;;20.13;;
4704;SDS011;2366;51.332;6.610;2024-01-06T13:27:05;31.05;;;17.60;;
4704;SDS011;2366;51.332;6.610;2024-01-06T13:29:31;36.23;;;18.87;;
4704;SDS011;2366;51.332;6.610;2024-01-06T13:31:57;40.13;;;18.80;;
4704;SDS011;2366;51.332;6.610;2024-01-06T13:34:24;34.90;;;18.52;;
4704;SDS011;2366;51.332;6.610;2024-01-06T13:36:49;37.77;;;19.30;;
4704;SDS011;2366;51.332;6.610;2024-01-06T13:39:15;41.60;;;20.80;;
4704;SDS011;2366;51.332;6.610;2024-01-06T13:41:45;47.05;;;21.25;;
4704;SDS011;2366;51.332;6.610;2024-01-06T13:44:12;41.67;;;21.85;;
4704;SDS011;2366;51.332;6.610;2024-01-06T13:46:38;45.00;;;21.80;;
4704;SDS011;2366;51.332;6.610;2024-01-06T13:49:06;40.88;;;19.10;;
4704;SDS011;2366;51.332;6.610;2024-01-06T13:51:31;40.83;;;20.03;;
4704;SDS011;2366;51.332;6.610;2024-01-06T13:53:57;40.20;;;20.75;;
4704;SDS011;2366;51.332;6.610;2024-01-06T13:56:23;40.23;;;21.27;;
4704;SDS011;2366;51.332;6.610;2024-01-06T13:58:48;36.17;;;19.40;;
4704;SDS011;2366;51.332;6.610;2024-01-06T14:01:14;37.30;;;18.37;;
4704;SDS011;2366;51.332;6.610;2024-01-06T14:03:39;38.00;;;18.83;;
4704;SDS011;2366;51.332;6.610;2024-01-06T14:06:05;32.87;;;17.60;;
4704;SDS011;2366;51.332;6.610;2024-01-06T14:08:32;39.50;;;18.30;;
4704;SDS011;2366;51.332;6.610;2024-01-06T14:10:57;34.17;;;17.17;;
4704;SDS011;2366;51.332;6.610;2024-01-06T14:13:22;38.80;;;19.10;;
4704;SDS011;2366;51.332;6.610;2024-01-06T14:15:48;34.80;;;18.60;;
4704;SDS011;2366;51.332;6.610;2024-01-06T14:18:13;35.50;;;18.70;;
4704;SDS011;2366;51.332;6.610;2024-01-06T14:20:41;35.50;;;19.58;;
4704;SDS011;2366;51.332;6.610;2024-01-06T14:23:06;33.30;;;15.80;;
4704;SDS011;2366;51.332;6.610;2024-01-06T14:25:31;29.70;;;15.57;;
4704;SDS011;2366;51.332;6.610;2024-01-06T14:27:57;27.30;;;16.33;;
4704;SDS011;2366;51.332;6.610;2024-01-06T14:30:22;23.83;;;15.37;;
4704;SDS011;2366;51.332;6.610;2024-01-06T14:32:48;28.57;;;17.33;;
4704;SDS011;2366;51.332;6.610;2024-01-06T14:35:13;40.77;;;17.83;;
4704;SDS011;2366;51.332;6.610;2024-01-06T14:37:39;34.47;;;18.20;;
4704;SDS011;2366;51.332;6.610;2024-01-06T14:40:06;33.10;;;18.10;;
4704;SDS011;2366;51.332;6.610;2024-01-06T14:42:32;31.98;;;19.08;;
4704;SDS011;2366;51.332;6.610;2024-01-06T14:44:58;27.10;;;17.70;;
4704;SDS011;2366;51.332;6.610;2024-01-06T14:47:24;30.83;;;18.60;;
4704;SDS011;2366;51.332;6.610;2024-01-06T14:49:49;29.53;;;17.83;;